Kezdőlap
METAR-TAF:

METAR-TAF

Repülőterek :

Curaçao, Holland Antillák

földrajzi szélesség: 12-12N, földrajzi hosszúság: 068-58W, magasság: 9 m

Jelenlegi meteorológiai megfigyelések

A jelentés 55 perccel ezelõtt készült, 02:00 UTC
Keleti szél 13 kt
Hőmérséklet 26°C
Páratartalom 79%
Légköri nyomás 1017 hPa
Látótávolság 10 km, vagy több
Szakadozott felhőzet 4100 lábon

METAR: TNCC 230200Z AUTO 09013KT 9999 BKN041 26/22 Q1017 NOSIG

Idő: 22:55 (02:55 UTC)

Előrejelzés

A jelentés 4 órával és 55 perccel ezelõtt készült, 22:00 UTC
Az előrejelzés 23-én 00 óra UTC és 23-én 24 óra UTC között érvényes
Keleti szél 14 kt
Látótávolság 10 km, vagy több
Szórványos felhőzet 1800 lábon

TAF: TNCC 222200Z 2300/2324 10014KT 9999 SCT018

Meteorológiai megfigyelések és előrejelzések több, mint 4000 repülőtéren (METAR és TAF jelentéseket).

A térképen piros és sárga pontok jelzik az elérhető meteorológiai állomásokat.

Mozgassa az egeret a pont fölött, hogy megjelenjen az állomás neve.

Azután kattintson az időjárási megfigyelések és előrejelzések megtekintéséhez.

A térkép megváltoztatása: kattintson a fekete keresztel jelölt zöld gombra ráközelítéshez, a vonallal jelölt zöld gombra távolításhoz, vagy a zöld nyilakra a szomszédos térképek eléréséhez.


METAR-TAF: